Ord, NE

3:09 PM CDT on April 02, 2020 (GMT -0500)
Sharp | | Change Station

Elev 2070 ft 41.62 °N, 98.95 °W | Updated 32 minutes ago

Snow
Snow
22 °F
Feels Like 6 °F
N
24
Wind Variable Wind from NNW

Today
High -- | Low -- °F
--% Chance of Precip.
Yesterday
High -- | Low -- °F
Precip. -- in
Pressure 29.99 in
Visibility 1.8 miles
Clouds Overcast 1100 ft
Windchill 6 °F
Dew Point 19 °F
Humidity 89%
Rainfall 0.00 in
Snow Depth Not available.
7:16 AM 8:02 PM
Waxing Gibbous, 65% visible
SPECI KODX 021937Z AUTO 34021KT 1 3/4SM -SN BR OVC011 M06/M07 A2999 RMK AO2 PK WND 35030/1907 UPE10FZRAB10E22SNB22 P0000 I1001 T10561072
Pressure 29.99 in
Visibility 1.8 miles
Clouds Overcast 1100 ft
Windchill 6 °F
Dew Point 19 °F
Humidity 89%
Rainfall 0.00 in
Snow Depth Not available.
7:16 AM 8:02 PM
Waxing Gibbous, 65% visible
SPECI KODX 021937Z AUTO 34021KT 1 3/4SM -SN BR OVC011 M06/M07 A2999 RMK AO2 PK WND 35030/1907 UPE10FZRAB10E22SNB22 P0000 I1001 T10561072

Get Severe Weather Alerts

Thanks for signing up!

Be on the lookout for a verification email in your inbox.

You'll start receiving the daily forecast at 6 AM.

×

10-Day Weather Forecast

Almanac

Astronomy

Apr. 02, 2020 Rise Set
Actual Time
Civil Twilight
Nautical Twilight
Astronomical Twilight
Moon
Length of Visible Light
Length of Day
Tomorrow will be .
, % of the Moon is Illuminated

Today's Extremes

State Highs State Lows

Community

WunderPhotos

Category 6

Welcome to Category 6. This is the collective home for Weather Underground's featured writeups by Dr. Jeff Masters (right), Bob Henson (left), Chris Burt, and other regular contributors.

Nearby

Air Quality

  Air Quality AQ Index Pollutant
Not available.

Snow Depth

Station Depth Elevation

Earthquake Activity

City Distance Mag. Time & Date
Minimum magnitude displayed is 2.5.

Coastal Water Temperatures

Place Temperature

Stations

Nearby Weather Stations

Station Location Temp. Windchill Dew Point Humidity Wind Precip. Elev Updated Type
                   

Watches & Warnings

There are currently no watches in effect.